Aeroporto :
LOGIN :

Iscrizione | Disclaimer

   EN    FR    IT 

 










Sommario :    VFR   VFR Marginale   IFR   IFR Intensivo   IFR Molto Intensivo
Visibilità : 
Base nubi : 
>= 8 km
>= 3000ft
5 / 8 km
1000 / 3000 ft
1500m / 5 km
500 / 1000 ft
800 / 1500m
200 / 500 ft
< 800m
< 200 ft
Simboli :   Temporali  Nebbia  Neve Forte  Precipitazioni Forti  Vento > 20 kt
SIGMETs :   Varie  Temporali  Ghiacco  Turbolenza  Onda orograficha  Ceneri Vulcaniche






- Altitudine del aeroporto : 55 ft
- Codice IATA : DSA


EGCN - Robin Hood Doncaster Sheffield

ULTIMO METAR :
  • 170950Z 01007KT 3500 -DZ BKN001 OVC005 08/08 Q1012

METARs OBSOLETI :
  • 170920Z 36006KT 3500 DZ BKN001 OVC018 08/08 Q1012
  • 170850Z 02008KT 9999 BKN002 OVC018 08/08 Q1012
  • 170820Z 02007KT 3000 -DZ BR BKN003 OVC006 08/08 Q1011
  • 170750Z 02009KT 7000 OVC002 08/08 Q1011

TAF AMD TAF EGCN
Valido dal 17 a 09 ore il 18 a 06 ore UTC


170935Z 1709/1806 29004KT 3000 RADZ BR BKN001
BECMG 1709/1712 35010KT 8000 NSW FEW006 BKN025
TEMPO 1712/1721 -RA FEW003 BKN006
PROB30
TEMPO 1712/1715 2000 RADZ BR BKN003
PROB30
TEMPO 1721/1806 BKN009



MetMap, La meteo Aeronautica in un colpo d'occhio ! - Copyright ORBIFLY Dicembre 2007 - Disclaimer

ORBIFLY MET'MAP TEAM :

Programmazione e sviluppo : Alexandra Zaïnal
Concezione e sviluppo : Baudouin d'Aumeries
Co-Programmazione e sviluppo : Marc-Olivier Méhu
Supporto tecnico e logistico : Manuel Goepfert
Aiuto per la traduzione : Arnaldo La Scala

Contatto : metmap@orbifly.com




FONTI E CREDITI :

   NOAA